Time;durP1;ratioP1;P1;durP2;ratioP2;P2;SDS_P1;SDS_P2;PMS_P1;PMS_P2;Temp;Humidity;BMP_temperature;BMP_pressure;BME280_temperature;BME280_humidity;BME280_pressure;Samples;Min_cycle;Max_cycle;Signal;HPM_P1;HPM_P2
2023/08/21 00:01:10;;;;;;;7.83;3.87;;;21.70;99.90;;;;;;5010697;28;20183;-63
2023/08/21 00:03:35;;;;;;;9.87;4.17;;;21.70;99.90;;;;;;4994845;28;20195;-63
2023/08/21 00:06:01;;;;;;;7.10;4.50;;;21.70;99.90;;;;;;4994179;28;20215;-63
2023/08/21 00:08:26;;;;;;;6.40;4.00;;;21.70;99.90;;;;;;4989669;28;21439;-63
2023/08/21 00:10:52;;;;;;;6.20;3.90;;;21.60;99.90;;;;;;4997059;28;20648;-63
2023/08/21 00:13:18;;;;;;;6.27;3.77;;;21.70;99.90;;;;;;4995280;28;20246;-63
2023/08/21 00:15:44;;;;;;;9.60;4.10;;;21.70;99.90;;;;;;4993042;28;20187;-63
2023/08/21 00:18:10;;;;;;;9.47;5.03;;;21.70;99.90;;;;;;4993096;28;20920;-63
2023/08/21 00:20:35;;;;;;;7.27;4.13;;;21.70;99.90;;;;;;4988680;28;20187;-63
2023/08/21 00:23:01;;;;;;;12.23;5.30;;;21.70;99.90;;;;;;4989835;28;20192;-63
2023/08/21 00:25:26;;;;;;;8.00;4.93;;;21.80;99.90;;;;;;4992573;28;20539;-63
2023/08/21 00:27:52;;;;;;;5.50;3.83;;;21.80;99.90;;;;;;4998626;28;20232;-63
2023/08/21 00:30:17;;;;;;;5.53;3.70;;;21.80;99.90;;;;;;4990692;28;20191;-63
2023/08/21 00:32:43;;;;;;;8.30;4.23;;;21.90;99.90;;;;;;5000138;28;20283;-63
2023/08/21 00:35:09;;;;;;;7.70;4.00;;;21.90;99.90;;;;;;4989301;28;20184;-63
2023/08/21 00:37:34;;;;;;;9.90;5.13;;;22.00;99.90;;;;;;4989670;28;20186;-63
2023/08/21 00:40:00;;;;;;;11.37;5.17;;;22.00;99.90;;;;;;4988940;28;20199;-63
2023/08/21 00:42:26;;;;;;;4.77;3.80;;;21.90;99.90;;;;;;4989745;28;20211;-63
2023/08/21 00:44:51;;;;;;;8.90;4.80;;;21.90;99.90;;;;;;4995998;28;20275;-63
2023/08/21 00:47:17;;;;;;;10.00;3.83;;;21.80;99.90;;;;;;5001438;28;20200;-63
2023/08/21 00:49:43;;;;;;;12.70;5.70;;;21.80;99.90;;;;;;4991135;28;20692;-63
2023/08/21 00:52:12;;;;;;;11.97;4.93;;;21.80;99.90;;;;;;4996254;28;20180;-63
2023/08/21 00:54:38;;;;;;;6.73;4.50;;;21.80;99.90;;;;;;4994476;28;20183;-63
2023/08/21 00:57:04;;;;;;;13.80;4.87;;;21.80;99.90;;;;;;4997370;28;20419;-63
2023/08/21 00:59:30;;;;;;;7.00;4.83;;;21.70;99.90;;;;;;4995320;28;20473;-63
2023/08/21 01:01:56;;;;;;;8.00;4.53;;;21.70;99.90;;;;;;4993546;28;20928;-63
2023/08/21 01:04:21;;;;;;;11.73;4.30;;;21.60;99.90;;;;;;4992427;28;20582;-63
2023/08/21 01:06:48;;;;;;;8.57;4.80;;;21.60;99.90;;;;;;4993297;28;20235;-63
2023/08/21 01:09:41;;;;;;;7.90;4.10;;;21.60;99.90;;;;;;4989716;28;20270;-63
2023/08/21 01:12:17;;;;;;;7.37;4.20;;;21.50;99.90;;;;;;4988043;28;20790;-64
2023/08/21 01:14:53;;;;;;;18.40;3.87;;;21.50;99.90;;;;;;4989976;28;20509;-63
2023/08/21 01:17:19;;;;;;;8.40;4.27;;;21.40;99.90;;;;;;4995262;28;20446;-63
2023/08/21 01:19:49;;;;;;;6.00;3.47;;;21.30;99.90;;;;;;4989473;28;20439;-63
2023/08/21 01:22:15;;;;;;;6.43;4.07;;;21.30;99.90;;;;;;4994116;28;20453;-63
2023/08/21 01:24:40;;;;;;;8.53;3.97;;;21.30;99.90;;;;;;4990526;28;20431;-63
2023/08/21 01:27:06;;;;;;;7.50;4.10;;;21.20;99.90;;;;;;4987523;28;20254;-63
2023/08/21 01:29:33;;;;;;;6.40;3.80;;;21.20;99.90;;;;;;4983861;28;20195;-63
2023/08/21 01:32:07;;;;;;;12.83;5.23;;;21.20;99.90;;;;;;4988415;28;20713;-63
2023/08/21 01:34:35;;;;;;;9.53;4.07;;;21.20;99.90;;;;;;4990246;28;20888;-63
2023/08/21 01:37:01;;;;;;;8.03;4.47;;;21.20;99.90;;;;;;4993468;28;20487;-63
2023/08/21 01:39:28;;;;;;;7.97;4.87;;;21.20;99.90;;;;;;4988520;28;20444;-63
2023/08/21 01:41:53;;;;;;;11.60;4.53;;;21.20;99.90;;;;;;4988043;28;20434;-63
2023/08/21 01:44:19;;;;;;;8.27;4.87;;;21.10;99.90;;;;;;4984293;28;20426;-63
2023/08/21 01:46:44;;;;;;;10.90;4.50;;;21.10;99.90;;;;;;4994368;28;20245;-63
2023/08/21 01:49:10;;;;;;;5.50;3.20;;;21.10;99.90;;;;;;5001444;28;20675;-63
2023/08/21 01:51:36;;;;;;;7.27;4.07;;;21.10;99.90;;;;;;4991555;28;20179;-63
2023/08/21 01:54:01;;;;;;;14.83;4.37;;;21.00;99.90;;;;;;4989693;28;20723;-63
2023/08/21 01:56:27;;;;;;;6.77;3.80;;;21.00;99.90;;;;;;4995654;28;20198;-63
2023/08/21 01:58:52;;;;;;;7.87;4.40;;;20.90;99.90;;;;;;4992171;28;20266;-63
2023/08/21 02:01:18;;;;;;;7.70;4.27;;;20.90;99.90;;;;;;4993369;28;20214;-63
2023/08/21 02:03:44;;;;;;;8.90;3.87;;;20.80;99.90;;;;;;4989916;28;20211;-63
2023/08/21 02:06:10;;;;;;;6.33;4.10;;;20.90;99.90;;;;;;4989077;28;20241;-63
2023/08/21 02:08:36;;;;;;;9.30;5.10;;;20.80;99.90;;;;;;4988517;28;20471;-63
2023/08/21 02:11:01;;;;;;;7.70;3.50;;;20.80;99.90;;;;;;4996439;28;20184;-63
2023/08/21 02:13:27;;;;;;;6.63;3.90;;;20.80;99.90;;;;;;4992936;28;20864;-63
2023/08/21 02:15:53;;;;;;;7.93;4.60;;;20.80;99.90;;;;;;4997884;28;20262;-63
2023/08/21 02:18:18;;;;;;;5.30;3.90;;;20.70;99.90;;;;;;4998127;28;20710;-63
2023/08/21 02:20:44;;;;;;;6.00;3.40;;;20.70;99.90;;;;;;4994846;28;20222;-63
2023/08/21 02:23:09;;;;;;;12.23;4.20;;;20.70;99.90;;;;;;5000840;28;20262;-63
2023/08/21 02:25:35;;;;;;;13.00;3.83;;;20.70;99.90;;;;;;5003134;28;20207;-63
2023/08/21 02:28:01;;;;;;;6.57;3.77;;;20.70;99.90;;;;;;4991836;28;20187;-63
2023/08/21 02:30:28;;;;;;;10.00;5.10;;;20.70;99.90;;;;;;4995371;28;20191;-63
2023/08/21 02:32:54;;;;;;;7.63;4.33;;;20.70;99.90;;;;;;4987229;28;20466;-63
2023/08/21 02:35:23;;;;;;;5.63;3.37;;;20.70;99.90;;;;;;4990034;28;20454;-63
2023/08/21 02:37:48;;;;;;;5.87;3.63;;;20.70;99.90;;;;;;4989782;28;20518;-63
2023/08/21 02:40:14;;;;;;;8.23;4.00;;;20.70;99.90;;;;;;4992960;28;20526;-63
2023/08/21 02:42:40;;;;;;;6.67;3.93;;;20.70;99.90;;;;;;4989806;28;20183;-63
2023/08/21 02:45:08;;;;;;;7.63;4.40;;;20.70;99.90;;;;;;4995361;28;20467;-63
2023/08/21 02:47:37;;;;;;;7.33;3.33;;;20.70;99.90;;;;;;4994440;28;20226;-63
2023/08/21 02:50:04;;;;;;;7.57;3.67;;;20.70;99.90;;;;;;5004407;28;20442;-63
2023/08/21 02:52:30;;;;;;;7.33;3.63;;;20.60;99.90;;;;;;4999751;28;20919;-63
2023/08/21 02:54:55;;;;;;;12.03;3.90;;;20.60;99.90;;;;;;4995149;28;20700;-63
2023/08/21 02:57:21;;;;;;;8.93;3.80;;;20.60;99.90;;;;;;4993933;28;20206;-63
2023/08/21 02:59:46;;;;;;;9.07;3.50;;;20.50;99.90;;;;;;4997876;28;20685;-65
2023/08/21 03:02:12;;;;;;;9.63;4.10;;;20.50;99.90;;;;;;4990409;28;20196;-63
2023/08/21 03:04:38;;;;;;;8.33;4.40;;;20.50;99.90;;;;;;4999222;28;20685;-63
2023/08/21 03:07:03;;;;;;;12.70;4.20;;;20.50;99.90;;;;;;4993222;28;20258;-63
2023/08/21 03:09:29;;;;;;;9.27;3.73;;;20.40;99.90;;;;;;4996877;28;20182;-63
2023/08/21 03:11:54;;;;;;;7.57;4.03;;;20.40;99.90;;;;;;4989329;28;20648;-63
2023/08/21 03:14:20;;;;;;;7.63;4.50;;;20.30;99.90;;;;;;4999956;28;20191;-63
2023/08/21 03:16:45;;;;;;;5.80;4.20;;;20.30;99.90;;;;;;4992516;28;20210;-63
2023/08/21 03:19:11;;;;;;;10.03;4.70;;;20.30;99.90;;;;;;4991199;28;20196;-63
2023/08/21 03:21:37;;;;;;;6.27;3.57;;;20.20;99.90;;;;;;4990257;28;20202;-63
2023/08/21 03:24:02;;;;;;;13.70;4.60;;;20.20;99.90;;;;;;5001190;28;20193;-63
2023/08/21 03:26:28;;;;;;;8.60;4.10;;;20.20;99.90;;;;;;4993030;28;20709;-63
2023/08/21 03:28:54;;;;;;;7.77;4.00;;;20.20;99.90;;;;;;4988457;28;20220;-63
2023/08/21 03:31:19;;;;;;;7.43;4.90;;;20.20;99.90;;;;;;4992479;28;20683;-63
2023/08/21 03:33:46;;;;;;;9.17;4.43;;;20.20;99.90;;;;;;4992182;28;20699;-63
2023/08/21 03:36:12;;;;;;;12.70;5.23;;;20.10;99.90;;;;;;4989869;28;20192;-63
2023/08/21 03:38:37;;;;;;;9.30;4.23;;;20.10;99.90;;;;;;4997116;28;20517;-63
2023/08/21 03:41:04;;;;;;;9.43;3.50;;;20.10;99.90;;;;;;4999397;28;20613;-63
2023/08/21 03:43:31;;;;;;;6.90;4.10;;;20.10;99.90;;;;;;4991213;28;20179;-63
2023/08/21 03:45:56;;;;;;;10.13;4.83;;;20.00;99.90;;;;;;4992592;28;20904;-63
2023/08/21 03:48:22;;;;;;;10.77;5.20;;;20.00;99.90;;;;;;5001127;28;20453;-63
2023/08/21 03:50:49;;;;;;;6.97;4.10;;;20.00;99.90;;;;;;4998372;28;20267;-63
2023/08/21 03:53:15;;;;;;;6.37;4.00;;;20.00;99.90;;;;;;4998267;28;20739;-63
2023/08/21 03:55:40;;;;;;;7.20;3.80;;;20.00;99.90;;;;;;5007512;28;20418;-63
2023/08/21 03:58:06;;;;;;;5.93;4.00;;;20.00;99.90;;;;;;5012384;28;20213;-63
2023/08/21 04:00:31;;;;;;;5.70;3.40;;;20.00;99.90;;;;;;5001189;28;20652;-63
2023/08/21 04:02:58;;;;;;;10.30;4.97;;;20.00;99.90;;;;;;5001587;28;20327;-63
2023/08/21 04:05:23;;;;;;;8.63;4.73;;;20.00;99.90;;;;;;4992311;28;20195;-63
2023/08/21 04:07:49;;;;;;;8.40;4.57;;;20.00;99.90;;;;;;4991663;28;20431;-63
2023/08/21 04:10:16;;;;;;;7.97;4.60;;;20.00;99.90;;;;;;4995260;28;20187;-63
2023/08/21 04:12:42;;;;;;;10.27;3.80;;;20.00;99.90;;;;;;4997154;28;20390;-63
2023/08/21 04:15:08;;;;;;;6.30;4.23;;;19.90;99.90;;;;;;4997435;28;20996;-63
2023/08/21 04:17:34;;;;;;;6.63;3.87;;;19.90;99.90;;;;;;4994718;28;20229;-63
2023/08/21 04:19:59;;;;;;;10.27;4.53;;;20.00;99.90;;;;;;5003408;28;20418;-63
2023/08/21 04:22:25;;;;;;;8.83;5.23;;;20.00;99.90;;;;;;5000505;28;20688;-63
2023/08/21 04:24:50;;;;;;;11.93;5.00;;;19.90;99.90;;;;;;4991227;28;20210;-63
2023/08/21 04:27:16;;;;;;;8.80;3.63;;;19.90;99.90;;;;;;5000574;28;20621;-63
2023/08/21 04:29:42;;;;;;;8.77;5.23;;;19.80;99.90;;;;;;4992625;28;20191;-63
2023/08/21 04:32:07;;;;;;;9.00;5.30;;;19.80;99.90;;;;;;4994748;28;20223;-63
2023/08/21 04:34:33;;;;;;;8.27;4.70;;;19.80;99.90;;;;;;4990401;28;20271;-63
2023/08/21 04:36:59;;;;;;;9.87;5.07;;;19.80;99.90;;;;;;4995938;28;20589;-63
2023/08/21 04:39:25;;;;;;;9.87;4.17;;;19.80;99.90;;;;;;4990322;28;20207;-63
2023/08/21 04:41:51;;;;;;;7.43;4.60;;;19.80;99.90;;;;;;4992065;28;20431;-63
2023/08/21 04:44:17;;;;;;;7.70;4.40;;;19.80;99.90;;;;;;4995600;28;20578;-63
2023/08/21 04:46:43;;;;;;;7.60;4.23;;;19.80;99.90;;;;;;4991982;28;20287;-63
2023/08/21 04:49:08;;;;;;;9.07;4.30;;;19.80;99.90;;;;;;4997118;28;20199;-63
2023/08/21 04:51:34;;;;;;;8.47;4.37;;;19.80;99.90;;;;;;4998642;28;20187;-63
2023/08/21 04:54:00;;;;;;;12.53;5.77;;;19.80;99.90;;;;;;4992346;28;20175;-63
2023/08/21 04:56:26;;;;;;;16.70;6.80;;;19.80;99.90;;;;;;4999639;28;20437;-63
2023/08/21 04:58:52;;;;;;;12.27;7.13;;;19.80;99.90;;;;;;4994620;28;20180;-63
2023/08/21 05:01:18;;;;;;;9.63;5.50;;;19.80;99.90;;;;;;4999738;28;20481;-63
2023/08/21 05:03:44;;;;;;;10.37;5.80;;;19.80;99.90;;;;;;4992634;28;20435;-63
2023/08/21 05:06:09;;;;;;;10.17;6.30;;;19.80;99.90;;;;;;4992276;28;20246;-63
2023/08/21 05:08:35;;;;;;;8.70;4.57;;;19.90;99.90;;;;;;4989172;28;20192;-63
2023/08/21 05:11:01;;;;;;;11.63;4.70;;;19.90;99.90;;;;;;4995367;28;20188;-63
2023/08/21 05:13:27;;;;;;;9.43;4.00;;;20.00;99.90;;;;;;4993180;28;20190;-63
2023/08/21 05:15:56;;;;;;;8.83;4.10;;;20.00;99.90;;;;;;4993600;28;20443;-63
2023/08/21 05:18:23;;;;;;;14.07;5.97;;;20.00;99.90;;;;;;4994952;28;20343;-63
2023/08/21 05:20:49;;;;;;;12.23;5.23;;;20.10;99.90;;;;;;4988199;28;20434;-63
2023/08/21 05:23:15;;;;;;;8.60;4.73;;;20.10;99.90;;;;;;4990778;28;20509;-63
2023/08/21 05:25:40;;;;;;;9.53;5.93;;;20.20;99.90;;;;;;4996259;28;20521;-63
2023/08/21 05:28:06;;;;;;;11.07;5.27;;;20.20;99.90;;;;;;4995848;28;20191;-63
2023/08/21 05:30:33;;;;;;;10.87;5.17;;;20.30;99.90;;;;;;4994290;28;20214;-63
2023/08/21 05:32:58;;;;;;;7.10;4.10;;;20.40;99.90;;;;;;4990612;28;20187;-63
2023/08/21 05:35:24;;;;;;;9.83;4.80;;;20.40;99.90;;;;;;4996255;28;20432;-63
2023/08/21 05:37:49;;;;;;;5.23;3.93;;;20.40;99.90;;;;;;5003288;28;20191;-63
2023/08/21 05:40:15;;;;;;;7.97;4.83;;;20.40;99.90;;;;;;4999668;28;20253;-63
2023/08/21 05:42:40;;;;;;;7.47;4.50;;;20.50;99.90;;;;;;4996977;28;20215;-63
2023/08/21 05:45:06;;;;;;;7.13;4.47;;;20.50;99.90;;;;;;4999252;28;20190;-63
2023/08/21 05:47:32;;;;;;;9.53;5.17;;;20.60;99.90;;;;;;5007190;28;20246;-63
2023/08/21 05:49:58;;;;;;;10.77;4.20;;;20.70;99.90;;;;;;5010667;28;20670;-63
2023/08/21 05:52:23;;;;;;;13.90;4.37;;;20.70;99.90;;;;;;5000317;28;20183;-63
2023/08/21 05:54:49;;;;;;;7.80;4.37;;;20.80;99.90;;;;;;5010441;28;20549;-63
2023/08/21 05:57:15;;;;;;;6.63;4.23;;;20.90;99.90;;;;;;5010288;28;20203;-63
2023/08/21 05:59:45;;;;;;;8.63;4.73;;;21.00;99.90;;;;;;5010784;28;20190;-63
2023/08/21 06:02:12;;;;;;;8.33;4.63;;;21.10;99.90;;;;;;5007763;28;20213;-64
2023/08/21 06:04:42;;;;;;;7.83;4.30;;;21.10;99.90;;;;;;4999851;28;20472;-63
2023/08/21 06:07:07;;;;;;;8.43;4.47;;;21.20;99.90;;;;;;4997365;28;20558;-63
2023/08/21 06:09:33;;;;;;;11.37;4.90;;;21.30;99.90;;;;;;4991436;28;20534;-63
2023/08/21 06:12:03;;;;;;;9.73;3.87;;;21.40;99.90;;;;;;4996015;28;20512;-63
2023/08/21 06:14:29;;;;;;;7.17;4.10;;;21.40;99.90;;;;;;4992793;28;20267;-64
2023/08/21 06:16:59;;;;;;;9.87;4.30;;;21.50;99.90;;;;;;4996397;28;20441;-63
2023/08/21 06:19:25;;;;;;;9.13;4.30;;;21.60;99.90;;;;;;4988807;28;20450;-63
2023/08/21 06:21:51;;;;;;;10.47;4.27;;;21.70;99.90;;;;;;4990040;28;20470;-63
2023/08/21 06:24:16;;;;;;;8.67;4.00;;;21.80;99.90;;;;;;4993455;28;20236;-63
2023/08/21 06:26:42;;;;;;;6.50;4.17;;;21.90;99.90;;;;;;4989762;28;20512;-63
2023/08/21 06:29:07;;;;;;;8.43;3.20;;;22.00;99.90;;;;;;4993056;28;20175;-63
2023/08/21 06:31:33;;;;;;;10.20;4.43;;;22.10;99.90;;;;;;4991867;28;20183;-63
2023/08/21 06:33:59;;;;;;;7.83;3.47;;;22.20;99.90;;;;;;4989985;28;20184;-63
2023/08/21 06:36:24;;;;;;;7.70;4.70;;;22.30;99.90;;;;;;4991448;28;20191;-63
2023/08/21 06:38:50;;;;;;;25.37;5.10;;;22.40;99.90;;;;;;4989011;28;20548;-63
2023/08/21 06:41:15;;;;;;;5.90;3.60;;;22.50;99.90;;;;;;4997683;28;20240;-63
2023/08/21 06:43:41;;;;;;;8.70;4.40;;;22.60;99.90;;;;;;5009638;28;20186;-63
2023/08/21 06:46:07;;;;;;;8.90;4.23;;;22.80;99.90;;;;;;5007896;28;20305;-63
2023/08/21 06:48:36;;;;;;;7.93;3.00;;;23.00;99.90;;;;;;5008268;28;20186;-63
2023/08/21 06:51:02;;;;;;;5.30;3.40;;;23.20;99.90;;;;;;5010336;28;20425;-64
2023/08/21 06:53:28;;;;;;;6.13;3.13;;;23.40;99.90;;;;;;5004820;28;20437;-63
2023/08/21 06:55:54;;;;;;;7.60;3.20;;;23.50;99.90;;;;;;5007263;28;20429;-63
2023/08/21 06:58:20;;;;;;;7.23;3.07;;;23.70;99.90;;;;;;5001198;28;20918;-63
2023/08/21 07:00:46;;;;;;;8.23;4.00;;;23.90;99.90;;;;;;5010360;28;20201;-63
2023/08/21 07:03:12;;;;;;;5.80;3.40;;;24.10;99.90;;;;;;5009287;28;20449;-63
2023/08/21 07:05:37;;;;;;;17.97;4.73;;;24.30;99.90;;;;;;5009715;28;20224;-64
2023/08/21 07:08:03;;;;;;;10.20;3.77;;;24.60;99.90;;;;;;4988662;28;20282;-63
2023/08/21 07:10:29;;;;;;;6.50;3.50;;;24.90;99.90;;;;;;4989872;28;20524;-63
2023/08/21 07:12:55;;;;;;;5.70;3.47;;;25.20;99.90;;;;;;5000611;28;20423;-65
2023/08/21 07:15:21;;;;;;;4.97;2.50;;;25.40;99.90;;;;;;4991323;28;20194;-65
2023/08/21 07:17:47;;;;;;;8.73;4.53;;;25.70;99.90;;;;;;4990872;28;20324;-65
2023/08/21 07:20:12;;;;;;;10.07;3.83;;;26.10;99.90;;;;;;4992431;28;20575;-65
2023/08/21 07:22:38;;;;;;;7.80;4.00;;;26.60;99.90;;;;;;4985680;28;20675;-65
2023/08/21 07:25:04;;;;;;;13.70;3.70;;;26.80;99.90;;;;;;4992717;28;20183;-62
2023/08/21 07:27:31;;;;;;;4.17;2.50;;;27.10;99.90;;;;;;4998955;28;20203;-65
2023/08/21 07:29:57;;;;;;;9.83;3.50;;;27.50;99.90;;;;;;4991235;28;20580;-65
2023/08/21 07:32:22;;;;;;;6.25;3.95;;;28.00;99.90;;;;;;4995301;28;20187;-67
2023/08/21 07:34:53;;;;;;;7.25;3.28;;;28.50;99.90;;;;;;4992309;28;20192;-67
2023/08/21 07:37:18;;;;;;;11.00;3.75;;;29.00;99.90;;;;;;5005423;28;20188;-67
2023/08/21 07:39:44;;;;;;;14.23;3.40;;;29.60;99.90;;;;;;4992283;28;20203;-64
2023/08/21 07:42:12;;;;;;;6.32;3.53;;;30.40;98.20;;;;;;4989187;28;20559;-64
2023/08/21 07:44:38;;;;;;;6.38;3.25;;;30.70;97.90;;;;;;4989889;28;20222;-65
2023/08/21 07:47:04;;;;;;;4.45;2.60;;;31.10;97.50;;;;;;4993267;28;20202;-64
2023/08/21 07:49:30;;;;;;;5.82;3.90;;;31.10;96.80;;;;;;4986944;28;20758;-64
2023/08/21 07:51:56;;;;;;;5.10;3.40;;;31.30;97.10;;;;;;4993930;28;20262;-64
2023/08/21 07:54:21;;;;;;;5.82;3.72;;;31.60;95.50;;;;;;4990810;28;20294;-64
2023/08/21 07:56:47;;;;;;;5.85;3.20;;;31.00;96.10;;;;;;4989418;28;20183;-64
2023/08/21 07:59:12;;;;;;;9.05;3.58;;;31.40;95.50;;;;;;4990019;28;20258;-65
2023/08/21 08:01:39;;;;;;;6.35;2.85;;;31.60;95.10;;;;;;4992865;28;20687;-65
2023/08/21 08:04:04;;;;;;;4.22;2.95;;;31.90;95.10;;;;;;4992911;28;20191;-65
2023/08/21 08:06:31;;;;;;;7.88;4.07;;;32.30;94.70;;;;;;4982862;28;20265;-65
2023/08/21 08:08:57;;;;;;;8.75;3.55;;;32.70;94.20;;;;;;4993255;28;20565;-65
2023/08/21 08:11:23;;;;;;;9.45;4.38;;;32.50;94.10;;;;;;4992261;28;20175;-65
2023/08/21 08:13:49;;;;;;;6.85;3.53;;;32.80;93.30;;;;;;4992225;28;20191;-65
2023/08/21 08:16:14;;;;;;;6.30;3.80;;;32.40;93.60;;;;;;4987597;28;20187;-65
2023/08/21 08:18:40;;;;;;;5.60;3.15;;;32.70;93.50;;;;;;4992334;28;20187;-65
2023/08/21 08:21:06;;;;;;;12.77;3.85;;;32.70;93.20;;;;;;4987678;28;20246;-65
2023/08/21 08:23:31;;;;;;;5.38;3.30;;;32.60;93.70;;;;;;4992563;28;20190;-64
2023/08/21 08:25:57;;;;;;;6.07;3.63;;;32.50;93.60;;;;;;4991975;28;20573;-65
2023/08/21 08:28:22;;;;;;;6.20;3.28;;;33.20;93.10;;;;;;4991988;28;20179;-65
2023/08/21 08:30:48;;;;;;;11.07;4.75;;;33.50;92.50;;;;;;4995039;28;20620;-64
2023/08/21 08:33:14;;;;;;;7.22;3.47;;;32.90;92.70;;;;;;4992562;28;20186;-65
2023/08/21 08:35:40;;;;;;;6.90;3.22;;;32.20;93.70;;;;;;4992528;28;20624;-65
2023/08/21 08:38:06;;;;;;;6.05;3.72;;;31.60;95.00;;;;;;4992776;28;20279;-64
2023/08/21 08:40:33;;;;;;;16.70;4.57;;;31.40;95.40;;;;;;4990844;28;20629;-65
2023/08/21 08:42:59;;;;;;;4.32;2.83;;;31.80;94.50;;;;;;4992210;28;20252;-65
2023/08/21 08:45:32;;;;;;;5.40;3.78;;;32.60;92.70;;;;;;4995689;28;20194;-65
2023/08/21 08:48:02;;;;;;;5.20;3.10;;;32.90;93.00;;;;;;4991745;28;20190;-65
2023/08/21 08:50:30;;;;;;;5.40;3.70;;;32.80;92.40;;;;;;4995089;28;20281;-65
2023/08/21 08:52:57;;;;;;;9.00;4.78;;;32.80;92.30;;;;;;4995878;28;20179;-65
2023/08/21 08:55:23;;;;;;;7.38;3.78;;;32.30;93.20;;;;;;4995234;28;20186;-65
2023/08/21 08:57:49;;;;;;;7.65;3.47;;;32.60;93.30;;;;;;4996826;28;20214;-65
2023/08/21 09:00:15;;;;;;;5.47;3.50;;;32.90;92.70;;;;;;4994237;28;20274;-65
2023/08/21 09:02:41;;;;;;;7.85;3.50;;;32.60;92.40;;;;;;4999708;28;20242;-65
2023/08/21 09:05:08;;;;;;;6.88;4.10;;;32.40;92.90;;;;;;4995714;28;20182;-65
2023/08/21 09:07:33;;;;;;;7.68;3.88;;;32.40;92.80;;;;;;4995301;28;20210;-65
2023/08/21 09:10:00;;;;;;;8.50;4.00;;;32.90;92.40;;;;;;4991235;28;20549;-65
2023/08/21 09:12:25;;;;;;;6.20;4.65;;;32.60;92.20;;;;;;4991802;28;20640;-65
2023/08/21 09:14:51;;;;;;;7.20;4.05;;;32.60;92.30;;;;;;4991479;28;20188;-65
2023/08/21 09:17:17;;;;;;;5.95;3.30;;;32.90;92.60;;;;;;4981716;28;20242;-66
2023/08/21 09:19:43;;;;;;;7.18;4.43;;;33.10;92.00;;;;;;4985644;28;20243;-65
2023/08/21 09:22:10;;;;;;;11.00;4.38;;;32.90;92.30;;;;;;4988759;28;20195;-65
2023/08/21 09:24:37;;;;;;;11.18;4.60;;;32.80;93.00;;;;;;4995629;28;20193;-65
2023/08/21 09:27:04;;;;;;;6.40;4.00;;;33.10;92.10;;;;;;4994536;28;20694;-65
2023/08/21 09:29:39;;;;;;;8.82;4.70;;;33.40;92.40;;;;;;4999665;28;20735;-65
2023/08/21 09:32:04;;;;;;;5.47;3.92;;;33.60;91.60;;;;;;4989966;28;20218;-65
2023/08/21 09:34:37;;;;;;;6.47;3.70;;;33.50;91.50;;;;;;4998203;28;20187;-65
2023/08/21 09:37:09;;;;;;;7.90;3.75;;;34.00;90.80;;;;;;4994546;28;20179;-65
2023/08/21 09:39:36;;;;;;;8.55;4.32;;;33.40;92.00;;;;;;4993146;28;20231;-66
2023/08/21 09:42:08;;;;;;;12.50;4.45;;;33.60;91.70;;;;;;4991459;28;20310;-65
2023/08/21 09:44:43;;;;;;;19.40;5.10;;;33.40;91.20;;;;;;4985369;28;20186;-67
2023/08/21 09:47:11;;;;;;;11.55;5.32;;;32.90;92.00;;;;;;4990198;28;20205;-66
2023/08/21 09:49:39;;;;;;;5.53;3.63;;;33.10;91.90;;;;;;5002054;28;20186;-67
2023/08/21 09:52:06;;;;;;;7.32;3.28;;;32.90;91.50;;;;;;4995703;28;20175;-67
2023/08/21 09:54:33;;;;;;;5.72;4.32;;;32.20;93.00;;;;;;4998828;28;20182;-67
2023/08/21 09:57:03;;;;;;;11.32;4.28;;;32.20;93.40;;;;;;4998399;28;20191;-66
2023/08/21 09:59:30;;;;;;;7.22;3.95;;;33.00;91.50;;;;;;5001100;28;20628;-66
2023/08/21 10:01:59;;;;;;;6.72;4.20;;;32.50;91.80;;;;;;4990388;28;20195;-66
2023/08/21 10:04:25;;;;;;;8.98;3.67;;;32.00;92.50;;;;;;4996582;28;20539;-66
2023/08/21 10:06:54;;;;;;;6.55;4.53;;;31.80;93.30;;;;;;4999146;28;20702;-66
2023/08/21 10:09:21;;;;;;;7.63;3.92;;;32.00;92.90;;;;;;4995553;28;20210;-65
2023/08/21 10:11:47;;;;;;;10.13;4.25;;;31.90;92.30;;;;;;4997859;28;20187;-66
2023/08/21 10:14:13;;;;;;;7.53;3.83;;;32.00;93.00;;;;;;4995197;28;20229;-66
2023/08/21 10:16:39;;;;;;;6.68;3.30;;;32.30;91.90;;;;;;4999235;28;20219;-66
2023/08/21 10:19:11;;;;;;;6.55;3.67;;;32.70;90.80;;;;;;4992347;28;20191;-66
2023/08/21 10:21:37;;;;;;;7.20;3.38;;;32.40;91.20;;;;;;4994565;28;20549;-66
2023/08/21 10:24:03;;;;;;;9.15;3.58;;;32.40;91.70;;;;;;4994325;28;20640;-66
2023/08/21 10:26:29;;;;;;;10.02;4.63;;;32.30;91.60;;;;;;4993339;28;20241;-66
2023/08/21 10:29:02;;;;;;;5.28;3.00;;;32.40;92.80;;;;;;4996725;28;20175;-66
2023/08/21 10:31:35;;;;;;;3.38;2.42;;;32.50;92.70;;;;;;4993704;28;20505;-66
2023/08/21 10:34:04;;;;;;;6.38;3.45;;;31.80;91.30;;;;;;4995617;28;20187;-66
2023/08/21 10:36:45;;;;;;;9.02;4.50;;;31.90;92.20;;;;;;4998723;28;20270;-66
2023/08/21 10:39:24;;;;;;;8.73;4.18;;;31.90;91.50;;;;;;4996819;28;20648;-66
2023/08/21 10:41:57;;;;;;;11.63;4.15;;;32.10;91.50;;;;;;4999468;28;20197;-66
2023/08/21 10:44:57;;;;;;;10.52;4.72;;;32.20;91.80;;;;;;4987213;28;20663;-66
2023/08/21 10:47:28;;;;;;;7.45;3.83;;;32.00;91.70;;;;;;4994144;28;20239;-66
2023/08/21 10:50:08;;;;;;;5.25;3.13;;;32.00;92.00;;;;;;4991710;28;20184;-66
2023/08/21 10:52:37;;;;;;;6.55;3.45;;;31.60;92.10;;;;;;4987449;28;20498;-66
2023/08/21 10:55:03;;;;;;;7.57;3.38;;;31.80;91.80;;;;;;4996553;28;20189;-67
2023/08/21 10:57:31;;;;;;;6.03;3.60;;;32.00;91.90;;;;;;4999596;28;20175;-66
2023/08/21 10:59:59;;;;;;;8.68;3.25;;;32.50;91.40;;;;;;4995643;28;20249;-66
2023/08/21 11:02:28;;;;;;;7.72;3.95;;;32.40;91.60;;;;;;4992199;28;20609;-64
2023/08/21 11:04:53;;;;;;;7.47;4.28;;;32.20;92.10;;;;;;4983516;28;20683;-64
2023/08/21 11:07:19;;;;;;;8.68;4.15;;;32.20;91.90;;;;;;4993987;28;20217;-64
2023/08/21 11:09:45;;;;;;;10.30;4.00;;;32.30;91.90;;;;;;4990658;28;20187;-64
2023/08/21 11:12:13;;;;;;;6.70;4.00;;;32.50;92.10;;;;;;4990754;28;20648;-64
2023/08/21 11:14:39;;;;;;;6.75;3.83;;;32.40;91.60;;;;;;4992667;28;20191;-64
2023/08/21 11:17:07;;;;;;;5.72;3.88;;;32.20;91.60;;;;;;4983921;28;20192;-64
2023/08/21 11:19:34;;;;;;;7.55;3.80;;;32.50;91.90;;;;;;5000206;28;20222;-64
2023/08/21 11:22:03;;;;;;;7.00;4.22;;;32.10;92.20;;;;;;5000990;28;20268;-64
2023/08/21 11:24:42;;;;;;;7.45;5.00;;;32.40;91.60;;;;;;5001668;28;20194;-65
2023/08/21 11:27:09;;;;;;;11.15;4.10;;;32.30;92.20;;;;;;4991044;28;20214;-66
2023/08/21 11:29:43;;;;;;;9.48;4.47;;;31.80;92.10;;;;;;4999982;28;20191;-67
2023/08/21 11:32:15;;;;;;;18.77;4.10;;;31.40;92.90;;;;;;4994928;28;20182;-64
2023/08/21 11:34:44;;;;;;;13.07;4.80;;;31.80;91.90;;;;;;4999045;28;20174;-64
2023/08/21 11:37:10;;;;;;;11.57;3.80;;;31.80;92.30;;;;;;5004570;28;20221;-64
2023/08/21 11:39:51;;;;;;;7.85;3.88;;;31.60;92.10;;;;;;5001337;28;20193;-64
2023/08/21 11:42:18;;;;;;;9.43;4.45;;;31.40;92.30;;;;;;4992878;28;20187;-64
2023/08/21 11:44:47;;;;;;;10.57;3.58;;;31.60;91.40;;;;;;4993157;28;20179;-64
2023/08/21 11:47:13;;;;;;;5.88;3.95;;;31.20;92.30;;;;;;4993128;28;20215;-64
2023/08/21 11:49:43;;;;;;;7.82;4.32;;;31.00;92.20;;;;;;4994987;28;20230;-65
2023/08/21 11:52:10;;;;;;;11.98;4.88;;;30.90;92.30;;;;;;4997733;28;20187;-65
2023/08/21 11:54:37;;;;;;;5.93;3.28;;;30.90;92.80;;;;;;4996946;28;20664;-65
2023/08/21 11:57:14;;;;;;;6.35;4.07;;;31.00;93.70;;;;;;5001126;28;20208;-65
2023/08/21 11:59:40;;;;;;;5.45;3.42;;;31.30;92.10;;;;;;5010931;23;20246;-64
2023/08/21 12:02:17;;;;;;;5.70;3.38;;;31.40;91.90;;;;;;5004102;28;20497;-64
2023/08/21 12:04:43;;;;;;;8.45;3.97;;;31.80;91.20;;;;;;5011941;28;20205;-64
2023/08/21 12:07:09;;;;;;;8.38;4.05;;;31.90;91.30;;;;;;5008797;28;20567;-65
2023/08/21 12:09:34;;;;;;;10.75;4.78;;;32.00;92.00;;;;;;5012658;28;20178;-64
2023/08/21 12:12:00;;;;;;;8.20;4.55;;;31.50;91.90;;;;;;5005419;28;20531;-64
2023/08/21 12:14:27;;;;;;;7.88;3.80;;;31.40;92.30;;;;;;5005675;28;20178;-64
2023/08/21 12:16:53;;;;;;;17.52;4.28;;;31.30;92.50;;;;;;4994705;28;20258;-65
2023/08/21 12:19:19;;;;;;;7.28;4.20;;;31.60;91.90;;;;;;4993132;28;20269;-64
2023/08/21 12:21:45;;;;;;;8.88;4.13;;;31.40;92.00;;;;;;4992444;28;20602;-64
2023/08/21 12:24:10;;;;;;;8.13;3.97;;;31.10;91.40;;;;;;4999162;28;20273;-64
2023/08/21 12:26:36;;;;;;;5.85;3.58;;;30.70;93.10;;;;;;4992633;28;20206;-64
2023/08/21 12:29:02;;;;;;;9.52;4.28;;;30.60;92.70;;;;;;4992171;28;20260;-64
2023/08/21 12:31:29;;;;;;;13.38;4.88;;;30.90;91.90;;;;;;4976550;28;20557;-64
2023/08/21 12:33:54;;;;;;;6.85;3.92;;;31.10;93.10;;;;;;5010163;28;20257;-65
2023/08/21 12:36:20;;;;;;;5.40;3.58;;;31.40;92.10;;;;;;5011418;28;20321;-65
2023/08/21 12:38:45;;;;;;;6.38;3.67;;;32.00;90.60;;;;;;4997693;28;20179;-64
2023/08/21 12:41:11;;;;;;;7.82;4.22;;;32.40;89.80;;;;;;5007020;28;20609;-64
2023/08/21 12:43:37;;;;;;;7.68;4.40;;;32.60;88.40;;;;;;5010694;28;20658;-65